Flight Track Log - Related Links

Times and Time Zones

All times are in EDT time to prevent confusion due to time zone crossing. See the KAP927 flight status page for this flight to view local times or setup timezone preferences in your user account.

Time Position Orientation Groundspeed Altitude Reporting Facility
EDT Latitude Longitude Course Direction KTS MPH feet Rate Location/Type
Wed 01:27:11 PM 42.3833 -71.0000 270° West 118 136 500  Level KA90
Wed 01:28:29 PM 42.3833 -71.0500 270° West 105 121 1,800 767 Climbing KA90
Wed 01:29:24 PM 42.3833 -71.0833 270° West 129 148 2,200 347 Climbing KA90
Wed 01:30:30 PM 42.3833 -71.1500 270° West 126 145 2,500 397 Climbing KA90
Wed 01:31:25 PM 42.3833 -71.1833 270° West 129 148 3,000 362 Climbing KA90
Wed 01:32:26 PM 42.3833 -71.2333 270° West 130 150 3,200 407 Climbing KA90
Wed 01:33:23 PM 42.4000 -71.2833 294° West 125 144 3,800 524 Climbing KA90
Wed 01:34:32 PM 42.4000 -71.3333 270° West 124 143 4,300 472 Climbing KA90
Wed 01:35:30 PM 42.4167 -71.3833 294° West 131 151 4,800 453 Climbing KA90
Wed 01:37:11 PM 42.4275 -71.4528 282° West 142 163 5,500 447 Climbing Boston Center
Wed 01:38:11 PM 42.4319 -71.5089 276° West 142 163 6,000 591 Climbing Boston Center
Wed 01:39:23 PM 42.4367 -71.5625 277° West 132 152 6,800 591 Climbing Boston Center
Wed 01:40:23 PM 42.4433 -71.6131 280° West 127 146 7,300 450 Climbing Boston Center
Wed 01:41:23 PM 42.4539 -71.6494 291° West 121 139 7,700 450 Climbing Boston Center
Wed 01:42:23 PM 42.4625 -71.7000 283° West 126 145 8,200 400 Climbing Boston Center
Wed 01:43:23 PM 42.4711 -71.7447 285° West 126 145 8,500 200 Climbing Boston Center
Wed 01:44:23 PM 42.4758 -71.8011 276° West 134 154 8,600 50 Climbing Boston Center
Wed 01:45:23 PM 42.4822 -71.8517 280° West 146 168 8,600  Level Boston Center
Wed 01:46:23 PM 42.4908 -71.9081 282° West 146 168 8,600  Level Boston Center
Wed 01:47:23 PM 42.4972 -71.9586 280° West 146 168 8,600  Level Boston Center
Wed 01:48:23 PM 42.5081 -72.0175 284° West 146 168 8,600  Level Boston Center
Wed 01:49:23 PM 42.5144 -72.0683 280° West 146 168 8,600  Level Boston Center
Wed 01:50:23 PM 42.5231 -72.1275 281° West 146 168 8,600  Level Boston Center
Wed 01:51:23 PM 42.5294 -72.1753 280° West 146 168 8,600  Level Boston Center
Wed 01:52:23 PM 42.5397 -72.2344 283° West 146 168 8,600  Level Boston Center
Wed 01:53:23 PM 42.5461 -72.2850 280° West 146 168 8,600  Level Boston Center
Wed 01:54:23 PM 42.5544 -72.3358 283° West 146 168 8,600  Level Boston Center
Wed 01:55:23 PM 42.5608 -72.3922 279° West 146 168 8,600 -50 Level Boston Center
Wed 01:56:23 PM 42.5692 -72.4514 281° West 146 168 8,500  Descending Boston Center
Wed 01:57:23 PM 42.5775 -72.5050 282° West 146 168 8,600 50 Climbing Boston Center
Wed 01:58:23 PM 42.5858 -72.5586 282° West 146 168 8,600  Level Boston Center
Wed 01:59:23 PM 42.5919 -72.6122 279° West 146 168 8,600  Level Boston Center
Wed 02:00:23 PM 42.5981 -72.6628 279° West 137 158 8,600  Level Boston Center
Wed 02:01:23 PM 42.6083 -72.7194 284° West 148 170 8,600  Level Boston Center
Wed 02:02:15 PM 42.6103 -72.7786 273° West 153 176 8,600  Level Boston Center
Wed 02:02:39 PM 42.6167 -72.7983 294° West 154 177 8,600  Level Boston Center
Wed 02:03:23 PM 42.6247 -72.8350 287° West 159 183 8,600  Level Boston Center
Wed 02:03:40 PM 42.6228 -72.8547 262° West 153 176 8,600  Level Boston Center
Wed 02:04:23 PM 42.6308 -72.8917 287° West 159 183 8,600  Level Boston Center
Wed 02:04:40 PM 42.6308 -72.9086 270° West 151 174 8,600  Level Boston Center
Wed 02:05:23 PM 42.6411 -72.9536 287° West 159 183 8,600  Level Boston Center
Wed 02:05:41 PM 42.6408 -72.9706 269° West 152 175 8,600  Level Boston Center
Wed 02:06:23 PM 42.6450 -73.0075 279° West 159 183 8,600  Level Boston Center
Wed 02:06:42 PM 42.6469 -73.0272 278° West 152 175 8,600  Level Boston Center
Wed 02:07:23 PM 42.6531 -73.0667 282° West 159 183 8,600  Level Boston Center
Wed 02:07:42 PM 42.6528 -73.0864 269° West 156 180 8,600 -100 Level Boston Center
Wed 02:08:23 PM 42.6589 -73.1233 283° West 159 183 8,500 -393 Descending Boston Center
Wed 02:08:43 PM 42.6628 -73.1431 285° West 156 180 8,200 -800 Descending Boston Center
Wed 02:09:23 PM 42.6667 -73.1883 277° West 172 198 7,700 -700 Descending Boston Center
Wed 02:09:43 PM 42.6708 -73.2111 284° West 179 206 7,500 -500 Descending Boston Center
Wed 02:10:23 PM 42.6767 -73.2533 281° West 177 204 7,200 -590 Descending Boston Center
Wed 02:10:44 PM 42.6786 -73.2789 276° West 187 215 6,900 -700 Descending Boston Center
Wed 02:11:23 PM 42.6867 -73.3214 284° West 182 209 6,500 -590 Descending Boston Center
Wed 02:11:45 PM 42.6928 -73.3469 288° West 183 211 6,300 -500 Descending Boston Center
Wed 02:12:23 PM 42.6944 -73.3892 273° West 182 209 6,000 -700 Descending Boston Center
Wed 02:12:45 PM 42.7006 -73.4175 286° West 181 208 5,600 -1,000 Descending Boston Center
Wed 02:13:23 PM 42.7000 -73.4600 269° West 182 209 5,000 -885 Descending Boston Center
Wed 02:13:46 PM 42.7039 -73.4883 281° West 189 217 4,700 -600 Descending Boston Center
Wed 02:14:23 PM 42.7017 -73.5222 265° West 182 209 4,400 -590 Descending Boston Center
Wed 02:14:47 PM 42.7014 -73.5561 269° West 180 207 4,100 -700 Descending Boston Center
Wed 02:15:23 PM 42.7008 -73.5956 269° West 177 204 3,700 -800 Descending Boston Center
Wed 02:15:47 PM 42.7006 -73.6239 269° West 175 201 3,300 -700 Descending Boston Center
Wed 02:16:23 PM 42.7003 -73.6606 269° West 177 204 3,000 -295 Descending Boston Center
Wed 02:16:48 PM 42.6958 -73.6886 258° West 171 197 3,000 -628 Level Boston Center
Wed 02:17:49 PM 42.6908 -73.7450 263° West 145 167 2,100 -934 Descending Boston Center
Wed 02:18:50 PM 42.7028 -73.7961 288° West 139 160 1,100 -984 Descending Boston Center
Wed 02:20:00 PM 42.7333 -73.8000 270° West  Level FlightAware Approximate
Wed 02:27:00 PM 42.7491 -73.8020 270° West  Level Estimated
Wed 02:28:00 PM 42.7491 -73.8020 270° West  Level Estimated
Wed 02:29:00 PM 42.7491 -73.8020 270° West  Level Estimated
Wed 02:30:00 PM 42.7491 -73.8020 270° West  Level Estimated

Login

Don't have an account? Register now (free) for customized features, flight alerts, and more!